Time;durP1;ratioP1;P1;durP2;ratioP2;P2;SDS_P1;SDS_P2;PMS_P1;PMS_P2;Temp;Humidity;BMP_temperature;BMP_pressure;BME280_temperature;BME280_humidity;BME280_pressure;Samples;Min_cycle;Max_cycle;Signal;HPM_P1;HPM_P2
2023/10/04 00:01:41;;;;;;;5.57;2.20;;;;;;;11.36;100.00;101841.03;6128936;23;20093;-91
2023/10/04 00:04:08;;;;;;;7.93;1.70;;;;;;;11.34;100.00;101840.50;6104409;23;20024;-89
2023/10/04 00:06:41;;;;;;;8.40;1.95;;;;;;;11.35;100.00;101850.16;6127075;23;20068;-89
2023/10/04 00:09:26;;;;;;;7.90;2.00;;;;;;;11.38;100.00;101848.84;6130358;23;20033;-91
2023/10/04 00:11:54;;;;;;;9.20;2.08;;;;;;;11.35;100.00;101849.34;6128175;23;20018;-88
2023/10/04 00:14:22;;;;;;;6.80;1.73;;;;;;;11.36;100.00;101851.78;6128505;23;20076;-88
2023/10/04 00:16:48;;;;;;;8.13;2.03;;;;;;;11.38;100.00;101854.22;6127549;23;20096;-88
2023/10/04 00:19:14;;;;;;;8.38;1.63;;;;;;;11.37;100.00;101866.00;6153474;23;20016;-88
2023/10/04 00:21:41;;;;;;;4.53;2.10;;;;;;;11.41;100.00;101843.81;6101885;23;20013;-88
2023/10/04 00:24:10;;;;;;;6.57;1.55;;;;;;;11.45;100.00;101849.50;6078732;23;20025;-89
2023/10/04 00:26:52;;;;;;;5.47;1.77;;;;;;;11.45;100.00;101844.94;6152219;23;20075;-88
2023/10/04 00:29:28;;;;;;;4.03;1.63;;;;;;;11.47;100.00;101860.78;6101020;23;20013;-89
2023/10/04 00:31:54;;;;;;;8.45;1.75;;;;;;;11.46;100.00;101851.13;6100321;23;20045;-87
2023/10/04 00:34:20;;;;;;;;;;;;;;;11.44;100.00;101855.91;6102936;23;20321;-88
2023/10/04 00:36:49;;;;;;;12.60;2.15;;;;;;;11.45;100.00;101865.59;6125803;23;19918;-91
2023/10/04 00:39:25;;;;;;;;;;;;;;;11.48;100.00;101870.44;6152379;23;20021;-89
2023/10/04 00:41:57;;;;;;;7.43;2.63;;;;;;;11.46;100.00;101872.56;6104323;23;19968;-88
2023/10/04 00:44:24;;;;;;;6.38;1.70;;;;;;;11.44;100.00;101858.59;6103368;23;20031;-87
2023/10/04 00:46:50;;;;;;;6.63;1.70;;;;;;;11.51;100.00;101864.56;6079359;23;20018;-90
2023/10/04 00:49:17;;;;;;;6.30;1.70;;;;;;;11.47;100.00;101884.94;6079131;23;20013;-87
2023/10/04 00:51:43;;;;;;;6.28;1.60;;;;;;;11.47;100.00;101884.94;6079379;23;20456;-87
2023/10/04 00:54:16;;;;;;;7.18;1.92;;;;;;;11.46;100.00;101877.94;6126928;23;20049;-90
2023/10/04 00:56:51;;;;;;;7.03;1.60;;;;;;;11.48;100.00;101886.53;6128036;23;20013;-88
2023/10/04 00:59:29;;;;;;;8.50;1.85;;;;;;;11.46;100.00;101894.03;6126720;23;20029;-90
2023/10/04 01:02:14;;;;;;;7.43;1.73;;;;;;;11.45;100.00;101887.06;6128087;23;20020;-89
2023/10/04 01:04:40;;;;;;;6.28;1.73;;;;;;;11.45;100.00;101879.00;6102864;23;20028;-88
2023/10/04 01:07:13;;;;;;;6.38;1.40;;;;;;;11.48;100.00;101882.00;6105637;23;20018;-88
2023/10/04 01:09:41;;;;;;;5.85;1.77;;;;;;;11.45;100.00;101881.69;6104165;23;20439;-89
2023/10/04 01:12:11;;;;;;;4.45;1.70;;;;;;;11.49;100.00;101883.59;6104485;23;20017;-89
2023/10/04 01:14:38;;;;;;;8.05;1.48;;;;;;;11.51;100.00;101869.94;6081432;23;20021;-88
2023/10/04 01:17:12;;;;;;;5.25;1.52;;;;;;;11.53;100.00;101878.56;6106129;23;20455;-90
2023/10/04 01:19:41;;;;;;;7.65;2.25;;;;;;;11.55;100.00;101884.50;6081819;23;20656;-89
2023/10/04 01:22:15;;;;;;;6.05;1.90;;;;;;;11.58;100.00;101886.66;6104885;23;20160;-90
2023/10/04 01:24:41;;;;;;;5.95;2.17;;;;;;;11.57;100.00;101885.06;6105183;23;20017;-88
2023/10/04 01:27:10;;;;;;;7.13;2.25;;;;;;;11.56;100.00;101888.78;6081632;23;20022;-88
2023/10/04 01:29:39;;;;;;;6.00;1.83;;;;;;;11.57;100.00;101882.38;6127292;23;20021;-88
2023/10/04 01:32:08;;;;;;;;;;;;;;;11.58;100.00;101892.03;6106439;23;20020;-89
2023/10/04 01:34:36;;;;;;;4.35;1.30;;;;;;;11.56;100.00;101883.44;6130923;23;19912;-89
2023/10/04 01:37:10;;;;;;;6.13;1.63;;;;;;;11.57;100.00;101893.09;6130252;23;20014;-92
2023/10/04 01:39:44;;;;;;;6.60;1.70;;;;;;;11.51;100.00;101895.97;6129037;23;20113;-90
2023/10/04 01:42:11;;;;;;;7.45;1.60;;;;;;;11.47;100.00;101896.47;6104507;23;20021;-90
2023/10/04 01:44:37;;;;;;;5.95;1.77;;;;;;;11.48;100.00;101891.91;6104976;23;20020;-90
2023/10/04 01:47:10;;;;;;;4.63;1.70;;;;;;;11.47;100.00;101895.66;6129221;23;20090;-90
2023/10/04 01:49:39;;;;;;;5.28;1.70;;;;;;;11.45;100.00;101897.78;6129481;23;20021;-89
2023/10/04 01:52:08;;;;;;;6.82;1.90;;;;;;;11.38;100.00;101889.91;6105332;23;20344;-88
2023/10/04 01:54:34;;;;;;;5.88;1.80;;;;;;;11.39;100.00;101896.09;6081174;23;20096;-90
2023/10/04 01:56:59;;;;;;;6.38;1.50;;;;;;;11.36;100.00;101904.59;6129316;23;20464;-89
2023/10/04 01:59:26;;;;;;;5.40;1.63;;;;;;;11.35;100.00;101901.13;6104303;23;20029;-89
2023/10/04 02:02:00;;;;;;;5.25;1.52;;;;;;;11.33;100.00;101910.47;6155075;23;20024;-90
2023/10/04 02:04:26;;;;;;;8.23;1.98;;;;;;;11.33;100.00;101900.56;6081168;23;20479;-89
2023/10/04 02:06:54;;;;;;;8.07;2.00;;;;;;;11.31;100.00;101897.31;6127733;23;20017;-88
2023/10/04 04:17:15;;;;;;;4.93;1.50;;;;;;;10.93;100.00;101933.72;6121948;23;20044;-90
2023/10/04 04:19:41;;;;;;;8.80;1.60;;;;;;;10.88;100.00;101941.66;6100815;23;20092;-88
2023/10/04 04:22:09;;;;;;;7.72;1.50;;;;;;;10.90;100.00;101946.78;6099130;23;20037;-89
2023/10/04 04:24:44;;;;;;;5.25;1.55;;;;;;;10.86;100.00;101946.47;6075311;23;20029;-89
2023/10/04 04:27:21;;;;;;;5.45;1.58;;;;;;;10.84;100.00;101955.81;6098566;23;20436;-89
2023/10/04 04:29:56;;;;;;;9.18;1.55;;;;;;;10.81;100.00;101945.56;6098746;23;20089;-89
2023/10/04 04:32:29;;;;;;;4.72;1.60;;;;;;;10.79;100.00;101955.72;6120984;23;20018;-89
2023/10/04 04:34:55;;;;;;;5.55;1.70;;;;;;;10.79;100.00;101959.19;6074715;23;20045;-87
2023/10/04 04:37:23;;;;;;;;;;;;;;;10.78;100.00;101964.81;6075695;23;20010;-90
2023/10/04 04:39:53;;;;;;;6.47;1.60;;;;;;;10.74;100.00;101964.47;6074361;23;19913;-89
2023/10/04 04:42:35;;;;;;;8.40;1.70;;;;;;;10.77;100.00;101971.19;6100956;23;20021;-87
2023/10/04 04:45:20;;;;;;;6.60;1.80;;;;;;;10.77;100.00;101976.56;6101009;23;20018;-91
2023/10/04 04:47:55;;;;;;;8.32;2.28;;;;;;;10.74;100.00;101969.00;6102549;23;20051;-88
2023/10/04 04:50:29;;;;;;;7.45;1.52;;;;;;;10.72;100.00;101979.16;6076906;23;20010;-88
2023/10/04 04:53:08;;;;;;;7.65;2.10;;;;;;;10.72;100.00;101984.53;6123217;23;20045;-90
2023/10/04 04:55:39;;;;;;;4.78;1.40;;;;;;;10.69;100.00;101985.78;6078274;23;20028;-89
2023/10/04 04:58:12;;;;;;;9.85;2.15;;;;;;;10.70;100.00;101981.25;6101006;23;20054;-89
2023/10/04 05:00:43;;;;;;;12.40;1.92;;;;;;;10.68;100.00;101986.03;6100435;23;20045;-89
2023/10/04 05:03:56;;;;;;;4.72;1.52;;;;;;;10.72;100.00;102000.59;6100832;23;20013;-90
2023/10/04 05:06:32;;;;;;;5.45;1.55;;;;;;;10.71;100.00;101993.63;6125003;23;20101;-89
2023/10/04 05:09:22;;;;;;;6.95;1.92;;;;;;;10.65;100.00;101992.72;6125750;23;20400;-90
2023/10/04 05:11:59;;;;;;;6.55;1.80;;;;;;;10.63;100.00;102006.34;6125001;23;20017;-91
2023/10/04 05:14:31;;;;;;;6.18;1.48;;;;;;;10.61;100.00;101995.03;6125354;23;20076;-89
2023/10/04 05:17:15;;;;;;;6.95;1.90;;;;;;;10.62;100.00;102007.38;6079060;23;20045;-89
2023/10/04 05:20:19;;;;;;;8.15;2.30;;;;;;;10.62;100.00;102002.00;6084922;23;20084;-90
2023/10/04 05:22:58;;;;;;;9.43;2.03;;;;;;;10.69;100.00;102006.41;6076935;23;20029;-90
2023/10/04 05:25:34;;;;;;;6.68;1.80;;;;;;;10.68;100.00;102015.53;6078099;23;20511;-88
2023/10/04 05:28:12;;;;;;;7.13;1.90;;;;;;;10.72;100.00;102005.97;6072346;23;20105;-90
2023/10/04 05:30:46;;;;;;;8.13;1.88;;;;;;;10.72;100.00;102014.81;6099558;23;20017;-88
2023/10/04 06:29:17;;;;;;;11.20;2.13;;;;;;;11.17;100.00;102073.78;6115362;23;20064;-90
2023/10/04 06:31:49;;;;;;;9.38;1.98;;;;;;;11.23;100.00;102065.84;6026650;23;20496;-89
2023/10/04 06:34:46;;;;;;;9.70;1.88;;;;;;;11.31;100.00;102079.69;6091854;23;20010;-89
2023/10/04 06:37:23;;;;;;;7.32;2.10;;;;;;;11.37;100.00;102088.63;6025936;23;20108;-90
2023/10/04 06:39:56;;;;;;;5.45;1.40;;;;;;;11.44;100.00;102087.41;6058587;23;20033;-89
2023/10/04 06:42:50;;;;;;;5.82;2.10;;;;;;;11.54;100.00;102089.47;6069418;23;20019;-88
2023/10/04 06:45:17;;;;;;;4.70;1.70;;;;;;;11.61;100.00;102102.72;6022180;23;20099;-89
2023/10/04 06:47:47;;;;;;;11.18;2.03;;;;;;;11.67;100.00;102105.25;6023207;23;20018;-88
2023/10/04 06:50:44;;;;;;;6.90;1.85;;;;;;;11.76;100.00;102111.81;6072968;23;20373;-90
2023/10/04 06:53:12;;;;;;;14.85;2.58;;;;;;;11.89;100.00;102108.03;6093591;23;20101;-88
2023/10/04 06:55:38;;;;;;;7.03;1.83;;;;;;;11.97;100.00;102106.81;6047686;23;20014;-88
2023/10/04 06:58:08;;;;;;;10.70;2.13;;;;;;;12.05;100.00;102114.44;6045856;23;20018;-89
2023/10/04 07:00:37;;;;;;;6.25;2.15;;;;;;;12.15;100.00;102111.91;6023161;23;20018;-90
2023/10/04 07:03:05;;;;;;;13.20;2.47;;;;;;;12.24;100.00;102109.59;6046566;23;20018;-89
2023/10/04 07:05:36;;;;;;;;;;;;;;;12.35;100.00;102113.25;6000359;23;20049;-89
2023/10/04 07:08:05;;;;;;;8.88;2.47;;;;;;;12.42;100.00;102106.66;6069003;23;19959;-89
2023/10/04 07:10:31;;;;;;;7.35;1.73;;;;;;;12.52;100.00;102117.50;6022793;23;20045;-89
2023/10/04 07:12:58;;;;;;;7.97;1.90;;;;;;;12.57;100.00;102125.66;6022586;23;20483;-90
2023/10/04 07:15:27;;;;;;;7.30;1.83;;;;;;;12.62;100.00;102130.28;6068441;23;20018;-90
2023/10/04 07:17:54;;;;;;;9.15;1.80;;;;;;;12.63;100.00;102123.84;6021179;23;20077;-89
2023/10/04 07:20:24;;;;;;;7.45;1.98;;;;;;;12.63;100.00;102118.47;6022168;23;20793;-91
2023/10/04 07:22:58;;;;;;;8.23;1.60;;;;;;;12.73;100.00;102129.34;6048797;23;20460;-88
2023/10/04 07:25:29;;;;;;;6.60;1.60;;;;;;;12.75;100.00;102121.84;6046467;23;20741;-90
2023/10/04 07:28:02;;;;;;;10.10;1.67;;;;;;;12.80;100.00;102143.44;6070606;23;20010;-89
2023/10/04 07:30:39;;;;;;;7.60;1.80;;;;;;;12.85;100.00;102126.53;6048619;23;20026;-89
2023/10/04 07:33:09;;;;;;;7.55;1.80;;;;;;;12.88;100.00;102134.09;6022160;23;20141;-87
2023/10/04 07:35:36;;;;;;;8.35;1.70;;;;;;;12.96;100.00;102132.84;6022700;23;20014;-91
2023/10/04 07:38:05;;;;;;;12.02;2.00;;;;;;;13.00;100.00;102137.44;6022721;23;20120;-90
2023/10/04 07:40:33;;;;;;;6.53;1.65;;;;;;;13.05;100.00;102142.09;6022837;23;20037;-90
2023/10/04 07:42:59;;;;;;;9.65;1.75;;;;;;;13.11;100.00;102152.66;6022908;23;20023;-89
2023/10/04 07:45:28;;;;;;;12.07;1.98;;;;;;;13.17;100.00;102152.72;6022828;23;20094;-89
2023/10/04 07:47:54;;;;;;;6.90;1.50;;;;;;;13.21;100.00;102156.53;6047175;23;20081;-90
2023/10/04 07:50:28;;;;;;;8.45;1.90;;;;;;;13.27;100.00;102150.16;6070040;23;20453;-89
2023/10/04 07:53:04;;;;;;;6.20;1.85;;;;;;;13.29;100.00;102148.84;6001057;23;20022;-90
2023/10/04 07:55:34;;;;;;;7.95;1.40;;;;;;;13.39;100.00;102148.94;6048043;23;20085;-91
2023/10/04 07:58:04;;;;;;;8.48;2.33;;;;;;;13.47;100.00;102154.91;5999727;23;20023;-89
2023/10/04 08:00:31;;;;;;;8.27;1.92;;;;;;;13.53;100.00;102157.41;6046622;23;20003;-87
2023/10/04 08:02:59;;;;;;;6.15;1.50;;;;;;;13.62;100.00;102157.78;6068973;23;20026;-90
2023/10/04 08:05:27;;;;;;;7.80;2.03;;;;;;;13.64;100.00;102167.22;6022462;23;20018;-90
2023/10/04 08:07:55;;;;;;;8.05;1.50;;;;;;;13.68;100.00;102164.00;6022759;23;20030;-89
2023/10/04 08:10:33;;;;;;;6.60;1.75;;;;;;;13.73;100.00;102161.34;6021267;23;20018;-88
2023/10/04 08:13:01;;;;;;;9.30;1.67;;;;;;;13.78;100.00;102173.00;6045905;23;20018;-92
2023/10/04 08:15:29;;;;;;;7.25;1.60;;;;;;;13.84;100.00;102169.28;6021909;23;20095;-89
2023/10/04 08:17:58;;;;;;;6.50;1.50;;;;;;;13.88;100.00;102166.88;6071030;23;20060;-91
2023/10/04 08:20:28;;;;;;;8.45;1.75;;;;;;;13.90;100.00;102165.56;6022254;23;20014;-90
2023/10/04 08:22:53;;;;;;;10.60;1.92;;;;;;;13.97;100.00;102165.34;6045786;23;20101;-90
2023/10/04 08:25:20;;;;;;;9.25;2.00;;;;;;;14.04;100.00;102170.50;6069274;23;20069;-88
2023/10/04 08:27:47;;;;;;;6.88;1.48;;;;;;;14.12;100.00;102172.72;6022450;23;20010;-89
2023/10/04 08:30:16;;;;;;;9.13;2.30;;;;;;;14.12;100.00;102173.53;6069421;23;20030;-91
2023/10/04 08:32:43;;;;;;;10.63;1.83;;;;;;;14.13;100.00;102166.25;6022620;23;20101;-90
2023/10/04 08:38:03;;;;;;;11.13;2.03;;;;;;;14.27;100.00;102182.78;6058446;23;20424;-88
2023/10/04 08:40:30;;;;;;;8.48;1.70;;;;;;;14.29;100.00;102173.38;6045542;23;20137;-90
2023/10/04 08:42:58;;;;;;;10.27;2.05;;;;;;;14.39;100.00;102183.41;6046025;23;20086;-89
2023/10/04 08:45:35;;;;;;;5.20;1.88;;;;;;;14.41;100.00;102187.47;6022335;23;20066;-88
2023/10/04 08:48:02;;;;;;;9.07;1.42;;;;;;;14.46;100.00;102176.75;6022475;23;20124;-89
2023/10/04 08:50:34;;;;;;;8.23;1.80;;;;;;;14.60;100.00;102176.28;6020649;23;20464;-90
2023/10/04 08:53:38;;;;;;;9.77;1.83;;;;;;;14.67;100.00;102174.97;6019948;23;20014;-89
2023/10/04 08:56:17;;;;;;;11.40;2.47;;;;;;;14.73;100.00;102167.72;5993360;23;20101;-88
2023/10/04 08:58:46;;;;;;;6.95;1.58;;;;;;;14.83;100.00;102178.56;6014539;23;20029;-90
2023/10/04 09:01:15;;;;;;;8.60;2.17;;;;;;;14.83;100.00;102183.94;6045366;23;20686;-89
2023/10/04 09:03:43;;;;;;;8.98;1.95;;;;;;;14.80;100.00;102179.09;6046223;23;20023;-89
2023/10/04 09:06:17;;;;;;;6.00;1.85;;;;;;;14.90;100.00;102176.44;6021973;23;20018;-87
2023/10/04 09:08:44;;;;;;;6.07;2.00;;;;;;;14.87;100.00;102178.84;6021451;23;20014;-89
2023/10/04 09:11:15;;;;;;;9.48;2.17;;;;;;;14.89;100.00;102171.28;6045547;23;20099;-88
2023/10/04 09:13:52;;;;;;;9.98;1.80;;;;;;;14.93;100.00;102170.50;6070706;23;20014;-89
2023/10/04 09:16:36;;;;;;;13.82;2.38;;;;;;;14.83;100.00;102170.47;6021835;23;20021;-87
2023/10/04 09:19:21;;;;;;;8.00;1.60;;;;;;;14.93;100.00;102167.00;6045456;23;20037;-88
2023/10/04 09:21:50;;;;;;;13.02;2.10;;;;;;;15.01;100.00;102172.69;6019337;23;20457;-88
2023/10/04 09:24:17;;;;;;;6.50;1.80;;;;;;;15.11;100.00;102163.03;6045824;23;20437;-91
2023/10/04 09:26:52;;;;;;;7.95;1.60;;;;;;;15.17;100.00;102153.84;6046026;23;20014;-87
2023/10/04 09:29:36;;;;;;;13.10;2.53;;;;;;;15.25;100.00;102170.34;6047053;23;20025;-90
2023/10/04 09:32:04;;;;;;;7.38;1.95;;;;;;;15.26;100.00;102168.47;6070224;23;20484;-89
2023/10/04 09:34:34;;;;;;;9.10;2.20;;;;;;;15.33;100.00;102166.31;6021046;23;20024;-89
2023/10/04 09:37:00;;;;;;;9.68;1.70;;;;;;;15.33;100.00;102170.91;6044552;23;20093;-90
2023/10/04 09:39:28;;;;;;;;;;;;;;;15.37;100.00;102172.78;6043097;23;20101;-92
2023/10/04 09:41:55;;;;;;;8.68;1.70;;;;;;;15.43;100.00;102171.72;6043670;23;19917;-89
2023/10/04 09:44:31;;;;;;;5.85;1.83;;;;;;;15.44;100.00;102181.44;6067474;23;20018;-90
2023/10/04 09:47:00;;;;;;;10.95;2.38;;;;;;;15.48;100.00;102190.63;6037896;23;20097;-91
2023/10/04 09:49:35;;;;;;;8.73;1.85;;;;;;;15.54;100.00;102183.38;6068303;23;20046;-89
2023/10/04 09:52:12;;;;;;;7.63;1.95;;;;;;;15.68;100.00;102178.28;6023220;23;20014;-89
2023/10/04 09:54:38;;;;;;;9.45;1.80;;;;;;;15.71;100.00;102183.13;6023983;23;20036;-90
2023/10/04 09:57:10;;;;;;;8.27;1.55;;;;;;;15.76;100.00;102188.53;6023465;23;20014;-91
2023/10/04 09:59:38;;;;;;;7.95;1.60;;;;;;;15.77;100.00;102182.88;6023289;23;20037;-88
2023/10/04 10:02:09;;;;;;;6.72;2.05;;;;;;;15.79;100.00;102193.44;6022725;23;20477;-91
2023/10/04 10:04:43;;;;;;;8.07;1.77;;;;;;;15.86;100.00;102191.28;6023848;23;20017;-90
2023/10/04 10:07:20;;;;;;;11.75;2.10;;;;;;;15.95;100.00;102189.63;6023570;23;20014;-90
2023/10/04 10:10:00;;;;;;;9.13;1.77;;;;;;;15.98;100.00;102186.38;6046998;23;20010;-87
2023/10/04 10:12:31;;;;;;;8.13;2.33;;;;;;;16.05;100.00;102203.16;6022186;23;20089;-91
2023/10/04 10:15:00;;;;;;;8.55;1.90;;;;;;;16.16;100.00;102200.44;6021008;23;20010;-89
2023/10/04 10:17:27;;;;;;;6.40;1.88;;;;;;;16.27;100.00;102210.97;6046180;23;20018;-91
2023/10/04 10:19:55;;;;;;;11.15;2.30;;;;;;;16.36;100.00;102222.03;6047012;23;20053;-90
2023/10/04 10:22:21;;;;;;;10.57;2.60;;;;;;;16.36;100.00;102208.53;6022748;23;20639;-91
2023/10/04 10:25:13;;;;;;;11.18;2.75;;;;;;;16.28;100.00;102220.69;6095952;23;20097;-89
2023/10/04 10:27:43;;;;;;;8.10;2.10;;;;;;;16.24;100.00;102221.50;6023842;23;20145;-89
2023/10/04 10:30:12;;;;;;;7.25;1.88;;;;;;;16.21;100.00;102222.06;6046365;23;20337;-89
2023/10/04 10:32:50;;;;;;;7.43;1.88;;;;;;;16.14;100.00;102224.22;6023248;23;20014;-91
2023/10/04 10:35:53;;;;;;;8.25;2.50;;;;;;;16.09;100.00;102223.16;6046836;23;20019;-89
2023/10/04 10:38:41;;;;;;;7.32;2.17;;;;;;;16.14;100.00;102222.34;6045842;23;20014;-90
2023/10/04 10:41:09;;;;;;;8.32;2.00;;;;;;;16.09;100.00;102220.44;6095602;23;20145;-89
2023/10/04 10:44:30;;;;;;;13.55;2.38;;;;;;;16.04;99.84;102231.25;6070526;23;20436;-88
2023/10/04 10:47:08;;;;;;;8.30;2.00;;;;;;;16.11;100.00;102241.78;6037297;23;20021;-91
2023/10/04 10:49:51;;;;;;;10.73;2.33;;;;;;;16.04;100.00;102235.84;6000199;23;20117;-87
2023/10/04 10:52:23;;;;;;;7.25;2.28;;;;;;;16.01;100.00;102234.50;6022452;23;20021;-86
2023/10/04 10:54:50;;;;;;;10.25;2.05;;;;;;;16.02;100.00;102238.81;6022503;23;20021;-89
2023/10/04 10:57:19;;;;;;;11.52;2.45;;;;;;;16.03;100.00;102240.44;6046286;23;20024;-89
2023/10/04 10:59:46;;;;;;;10.05;2.10;;;;;;;16.06;100.00;102239.09;6022655;23;20014;-89
2023/10/04 11:02:13;;;;;;;8.85;2.33;;;;;;;16.06;97.25;102229.09;6045889;23;20093;-88
2023/10/04 11:04:42;;;;;;;7.72;2.05;;;;;;;16.27;100.00;102234.50;6047360;23;20037;-90
2023/10/04 11:07:21;;;;;;;9.00;2.38;;;;;;;16.46;96.84;102238.28;6071322;23;20065;-88
2023/10/04 11:09:50;;;;;;;9.15;2.20;;;;;;;16.69;98.34;102230.66;6069938;23;20046;-88
2023/10/04 11:12:18;;;;;;;11.15;2.50;;;;;;;16.85;93.54;102226.81;6045128;23;20048;-88
2023/10/04 11:14:44;;;;;;;11.43;2.10;;;;;;;17.03;97.02;102223.53;6070110;23;20041;-87
2023/10/04 11:17:10;;;;;;;;;;;;;;;17.18;95.50;102214.53;6046871;23;20049;-89
2023/10/04 11:19:36;;;;;;;8.20;2.47;;;;;;;17.26;90.88;102207.72;6045696;23;19910;-88
2023/10/04 11:22:03;;;;;;;13.90;3.17;;;;;;;17.27;91.02;102210.13;6022816;23;20022;-88
2023/10/04 11:24:30;;;;;;;11.68;3.40;;;;;;;17.34;89.65;102207.13;6021991;23;20018;-89
2023/10/04 11:26:59;;;;;;;12.48;2.92;;;;;;;17.39;95.59;102209.81;6047340;23;20070;-90
2023/10/04 11:29:28;;;;;;;10.25;2.97;;;;;;;17.34;87.39;102204.41;6045665;23;20109;-86
2023/10/04 11:31:58;;;;;;;8.65;2.35;;;;;;;17.35;87.93;102200.66;6069616;23;20018;-87
2023/10/04 11:34:31;;;;;;;9.30;2.70;;;;;;;17.40;91.62;102195.97;6046253;23;20086;-90
2023/10/04 11:37:04;;;;;;;8.80;2.95;;;;;;;17.43;90.56;102191.91;6044670;23;20015;-89
2023/10/04 11:39:47;;;;;;;8.63;2.80;;;;;;;17.47;91.02;102201.09;6043399;23;20021;-88
2023/10/04 11:42:17;;;;;;;9.88;2.90;;;;;;;17.54;90.11;102204.28;6045327;23;20014;-86
2023/10/04 11:44:43;;;;;;;10.05;2.95;;;;;;;17.63;92.45;102205.34;6046773;23;20044;-89
2023/10/04 11:47:10;;;;;;;11.10;3.45;;;;;;;17.68;89.66;102194.47;6022495;23;20101;-88
2023/10/04 11:49:40;;;;;;;8.68;2.40;;;;;;;17.77;87.91;102196.59;6021755;23;20018;-86
2023/10/04 11:52:06;;;;;;;9.45;2.83;;;;;;;17.58;84.85;102194.53;6045406;23;20163;-87
2023/10/04 11:54:44;;;;;;;10.40;3.28;;;;;;;17.61;85.97;102188.56;6045567;23;20643;-87
2023/10/04 11:57:10;;;;;;;10.23;3.03;;;;;;;17.73;87.64;102191.72;6022787;23;20042;-89
2023/10/04 11:59:37;;;;;;;9.48;2.58;;;;;;;17.68;86.20;102177.41;6045389;23;20019;-87
2023/10/04 12:02:04;;;;;;;9.07;3.10;;;;;;;17.63;88.08;102180.94;6021787;23;20461;-87
2023/10/04 12:04:32;;;;;;;11.20;3.17;;;;;;;17.38;88.02;102181.91;6022592;23;20014;-85
2023/10/04 12:07:04;;;;;;;8.00;2.88;;;;;;;17.17;89.25;102183.13;6070012;23;20019;-86
2023/10/04 12:09:36;;;;;;;8.98;2.80;;;;;;;17.15;86.11;102179.91;6045283;23;20022;-87
2023/10/04 12:12:07;;;;;;;9.35;2.97;;;;;;;16.99;91.76;102172.94;6022252;23;20046;-89
2023/10/04 12:14:33;;;;;;;10.43;3.30;;;;;;;16.70;87.17;102180.91;6022245;23;20022;-89
2023/10/04 12:17:03;;;;;;;5.75;2.55;;;;;;;16.64;93.27;102186.28;6022301;23;20014;-87
2023/10/04 12:19:31;;;;;;;9.50;2.70;;;;;;;16.56;94.35;102189.56;6021172;23;20498;-87
2023/10/04 12:21:59;;;;;;;12.13;3.10;;;;;;;16.63;95.52;102184.66;6021746;23;20093;-87
2023/10/04 12:24:30;;;;;;;8.05;2.60;;;;;;;16.59;96.19;102182.78;6070019;23;20014;-87
2023/10/04 12:27:00;;;;;;;10.80;2.92;;;;;;;16.55;95.74;102177.13;6022250;23;20018;-87
2023/10/04 12:29:30;;;;;;;8.02;2.75;;;;;;;16.58;95.80;102179.25;6019376;23;20037;-87
2023/10/04 12:31:56;;;;;;;12.07;3.33;;;;;;;16.71;98.58;102185.22;6021754;23;20069;-87
2023/10/04 12:34:24;;;;;;;10.23;3.80;;;;;;;16.64;95.03;102180.06;6045522;23;20092;-87
2023/10/04 12:36:51;;;;;;;10.95;2.90;;;;;;;16.68;94.64;102180.34;6022639;23;20076;-87
2023/10/04 12:39:17;;;;;;;11.38;2.88;;;;;;;16.71;97.94;102174.41;6045136;23;20461;-87
2023/10/04 12:41:46;;;;;;;7.00;2.72;;;;;;;16.80;92.89;102183.56;6046089;23;20010;-89
2023/10/04 12:44:15;;;;;;;8.88;3.15;;;;;;;16.91;89.78;102168.91;6020263;23;20045;-87
2023/10/04 12:46:41;;;;;;;9.32;3.80;;;;;;;17.09;88.40;102171.00;6019566;23;20014;-86
2023/10/04 12:49:07;;;;;;;11.05;3.25;;;;;;;17.23;86.88;102171.19;6046075;23;20105;-88
2023/10/04 12:51:34;;;;;;;8.38;3.50;;;;;;;17.40;86.39;102170.81;6045402;23;20002;-88
2023/10/04 12:54:00;;;;;;;10.13;3.58;;;;;;;17.49;83.27;102160.19;6022066;23;20022;-86
2023/10/04 12:56:26;;;;;;;12.70;3.80;;;;;;;17.56;85.56;102164.22;6021736;23;20093;-88
2023/10/04 12:58:51;;;;;;;;;;;;;;;17.58;88.47;102156.59;6045370;23;20033;-88
2023/10/04 13:01:19;;;;;;;10.30;3.20;;;;;;;17.47;91.68;102163.16;6045924;23;19955;-88
2023/10/04 13:03:47;;;;;;;12.85;3.63;;;;;;;17.31;89.50;102165.19;6047685;23;20018;-88
2023/10/04 13:06:14;;;;;;;9.48;3.15;;;;;;;17.17;90.23;102166.88;6071017;23;20041;-89
2023/10/04 13:08:44;;;;;;;9.07;3.05;;;;;;;17.08;91.72;102166.66;6046443;23;20453;-87
2023/10/04 13:11:14;;;;;;;8.63;3.35;;;;;;;16.91;88.60;102168.91;6071085;23;20017;-88
2023/10/04 13:13:42;;;;;;;6.10;2.60;;;;;;;16.85;87.83;102170.00;6046946;23;20397;-89
2023/10/04 13:16:11;;;;;;;8.50;3.13;;;;;;;16.80;84.81;102173.56;6047354;23;20018;-90
2023/10/04 13:18:37;;;;;;;8.48;3.35;;;;;;;16.78;87.51;102174.91;6023185;23;20014;-88
2023/10/04 13:21:04;;;;;;;11.10;2.72;;;;;;;16.74;92.85;102176.56;6000826;23;20018;-88
2023/10/04 13:23:32;;;;;;;10.13;3.00;;;;;;;16.69;95.00;102184.66;6023773;23;20045;-88
2023/10/04 13:26:04;;;;;;;7.65;2.60;;;;;;;16.64;95.61;102175.47;6071220;23;20026;-86
2023/10/04 13:28:32;;;;;;;7.53;3.13;;;;;;;16.63;91.67;102178.44;6047289;23;20026;-88
2023/10/04 13:31:05;;;;;;;8.48;3.00;;;;;;;16.64;95.69;102186.28;6047493;23;20040;-88
2023/10/04 13:33:32;;;;;;;9.60;3.10;;;;;;;16.68;98.96;102183.84;6046675;23;20022;-87
2023/10/04 13:35:58;;;;;;;7.53;2.60;;;;;;;16.67;93.61;102181.44;6047455;23;20014;-87
2023/10/04 13:38:24;;;;;;;;;;;;;;;16.70;95.98;102172.78;6023768;23;20767;-89
2023/10/04 13:40:51;;;;;;;5.70;2.65;;;;;;;16.72;89.64;102165.19;6071758;23;20304;-89
2023/10/04 13:43:21;;;;;;;10.65;2.83;;;;;;;16.74;88.63;102163.03;6000724;23;20038;-87
2023/10/04 13:45:49;;;;;;;13.73;3.20;;;;;;;16.70;86.50;102175.50;6047325;23;20073;-86
2023/10/04 13:48:15;;;;;;;8.35;2.85;;;;;;;16.70;93.57;102178.19;6047481;23;20018;-87
2023/10/04 13:50:42;;;;;;;;;;;;;;;16.67;93.94;102166.00;6047159;23;20011;-88
2023/10/04 13:53:10;;;;;;;7.90;2.33;;;;;;;16.67;94.39;102167.91;6047069;23;19916;-88
2023/10/04 13:55:37;;;;;;;7.43;3.25;;;;;;;16.70;91.98;102159.25;6047595;23;20006;-89
2023/10/04 13:58:09;;;;;;;7.72;2.75;;;;;;;16.76;95.68;102163.56;6023613;23;20014;-88
2023/10/04 14:00:41;;;;;;;6.50;2.65;;;;;;;16.75;96.92;102159.25;6070010;23;20393;-88
2023/10/04 14:03:09;;;;;;;9.30;3.08;;;;;;;16.74;88.48;102153.03;6070825;23;20014;-88
2023/10/04 14:05:35;;;;;;;9.82;2.95;;;;;;;16.81;92.73;102164.34;6023454;23;20022;-90
2023/10/04 14:08:02;;;;;;;9.30;3.33;;;;;;;16.84;93.49;102157.56;6069777;23;20051;-88
2023/10/04 14:10:27;;;;;;;8.32;3.33;;;;;;;16.83;89.79;102159.47;6020097;23;20014;-90
2023/10/04 14:12:57;;;;;;;10.02;3.10;;;;;;;16.83;90.48;102155.97;6023217;23;20528;-89
2023/10/04 14:15:31;;;;;;;8.00;3.05;;;;;;;16.82;94.98;102159.75;6022674;23;20014;-88
2023/10/04 14:17:58;;;;;;;9.68;2.60;;;;;;;16.76;95.71;102158.97;6001130;23;20018;-86
2023/10/04 14:20:26;;;;;;;7.63;2.97;;;;;;;16.74;98.45;102163.03;6022516;23;20014;-86
2023/10/04 14:22:53;;;;;;;5.57;2.78;;;;;;;16.72;97.69;102163.28;6000117;23;20453;-88
2023/10/04 14:25:19;;;;;;;9.95;2.60;;;;;;;16.70;99.07;102159.25;6071248;23;20464;-88
2023/10/04 14:27:51;;;;;;;;;;;;;;;16.67;100.00;102157.09;6023666;23;20022;-89
2023/10/04 14:30:23;;;;;;;6.15;1.95;;;;;;;16.63;100.00;102151.41;6047134;23;19916;-86
2023/10/04 14:32:51;;;;;;;6.78;2.30;;;;;;;16.60;93.74;102154.66;6023601;23;20725;-88
2023/10/04 14:35:17;;;;;;;6.70;2.03;;;;;;;16.60;97.49;102154.66;6046419;23;20022;-88
2023/10/04 14:37:46;;;;;;;8.02;2.53;;;;;;;16.54;98.82;102143.06;6023105;23;20088;-87
2023/10/04 14:40:17;;;;;;;10.40;2.90;;;;;;;16.49;97.49;102145.78;6022329;23;20069;-88
2023/10/04 14:42:48;;;;;;;7.38;2.75;;;;;;;16.42;98.18;102156.06;6023386;23;20022;-89
2023/10/04 14:45:14;;;;;;;5.53;2.35;;;;;;;16.33;99.58;102150.41;6023210;23;20014;-87
2023/10/04 14:47:39;;;;;;;8.60;3.10;;;;;;;16.23;98.99;102147.72;6022863;23;20025;-87